Time;durP1;ratioP1;P1;durP2;ratioP2;P2;SDS_P1;SDS_P2;PMS_P1;PMS_P2;Temp;Humidity;BMP_temperature;BMP_pressure;BME280_temperature;BME280_humidity;BME280_pressure;Samples;Min_cycle;Max_cycle;Signal;HPM_P1;HPM_P2
2022/02/06 00:01:36;;;;;;;5.40;2.88;;;;;;;0.83;71.05;100177.41;5094793;28;20052;-64
2022/02/06 00:04:06;;;;;;;9.80;2.97;;;;;;;0.96;70.19;100192.22;5094305;28;20083;-64
2022/02/06 00:06:36;;;;;;;6.65;3.45;;;;;;;0.99;70.40;100179.81;5094891;28;20383;-64
2022/02/06 00:09:05;;;;;;;6.53;3.03;;;;;;;1.01;70.18;100180.72;5094210;28;20100;-64
2022/02/06 00:11:34;;;;;;;8.10;4.10;;;;;;;0.95;70.48;100167.91;5094166;28;20044;-64
2022/02/06 00:14:03;;;;;;;7.80;3.17;;;;;;;1.02;70.75;100177.44;5094264;28;20058;-64
2022/02/06 00:16:32;;;;;;;8.40;3.53;;;;;;;1.09;70.77;100174.41;5094119;28;20101;-64
2022/02/06 00:19:02;;;;;;;7.55;3.42;;;;;;;1.07;70.59;100170.97;5094057;28;20494;-64
2022/02/06 00:21:34;;;;;;;11.15;3.60;;;;;;;1.12;70.59;100179.56;5094382;28;20079;-64
2022/02/06 00:24:05;;;;;;;7.97;4.10;;;;;;;1.14;70.58;100172.97;5094422;28;20099;-64
2022/02/06 00:26:39;;;;;;;7.88;3.08;;;;;;;1.18;71.08;100162.22;5094224;28;20068;-64
2022/02/06 00:29:21;;;;;;;7.60;3.38;;;;;;;1.21;71.06;100162.38;5093993;28;20047;-64
2022/02/06 00:31:55;;;;;;;7.13;3.50;;;;;;;1.15;71.38;100159.56;5094237;28;20078;-64
2022/02/06 00:34:48;;;;;;;6.38;2.97;;;;;;;1.17;71.28;100160.53;5093995;28;20489;-63
2022/02/06 00:39:59;;;;;;;5.15;2.60;;;;;;;1.31;71.66;100162.00;5093783;28;20036;-64
2022/02/06 00:42:27;;;;;;;6.97;2.92;;;;;;;1.28;72.06;100149.28;5094132;28;20093;-64
2022/02/06 00:44:57;;;;;;;9.90;3.33;;;;;;;1.37;71.58;100150.47;5094040;28;20482;-64
2022/02/06 00:47:28;;;;;;;10.30;3.17;;;;;;;1.44;72.43;100142.41;5094021;28;20066;-64
2022/02/06 00:50:00;;;;;;;7.22;2.65;;;;;;;1.47;71.83;100137.47;5093481;28;20127;-64
2022/02/06 00:52:35;;;;;;;6.10;2.65;;;;;;;1.50;72.25;100137.63;5094027;28;20067;-64
2022/02/06 00:55:05;;;;;;;7.75;2.78;;;;;;;1.50;71.61;100142.66;5093696;28;20044;-64
2022/02/06 00:57:34;;;;;;;5.20;2.58;;;;;;;1.57;71.84;100137.09;5093823;28;20047;-64
2022/02/06 01:00:04;;;;;;;6.23;2.53;;;;;;;1.51;71.40;100135.19;5093821;28;20139;-64
2022/02/06 01:02:33;;;;;;;5.55;3.28;;;;;;;1.35;71.72;100132.78;5094000;28;20673;-64
2022/02/06 01:05:05;;;;;;;6.03;3.03;;;;;;;1.12;72.40;100113.38;5094069;28;20068;-65
2022/02/06 01:07:34;;;;;;;5.90;2.75;;;;;;;1.13;72.32;100136.03;5097676;28;20055;-65
2022/02/06 01:10:06;;;;;;;7.38;3.05;;;;;;;1.02;72.73;100112.09;5097831;28;20062;-65
2022/02/06 01:12:37;;;;;;;5.75;2.65;;;;;;;1.08;72.31;100122.41;5097800;28;20123;-65
2022/02/06 01:15:07;;;;;;;9.13;2.83;;;;;;;1.07;72.58;100105.63;5097638;28;20048;-65
2022/02/06 01:17:41;;;;;;;6.93;3.33;;;;;;;1.06;72.80;100108.91;5097539;28;20048;-64
2022/02/06 01:20:16;;;;;;;7.10;2.60;;;;;;;1.11;72.98;100107.47;5097602;28;20040;-65
2022/02/06 01:22:52;;;;;;;7.43;2.80;;;;;;;1.11;73.05;100111.63;5097496;28;20536;-65
2022/02/06 01:25:27;;;;;;;9.27;3.47;;;;;;;1.06;72.22;100103.91;5097476;28;20072;-65
2022/02/06 01:28:01;;;;;;;6.13;2.95;;;;;;;1.07;72.82;100094.72;5097326;28;20515;-65
2022/02/06 01:30:40;;;;;;;9.75;3.55;;;;;;;1.02;72.63;100092.00;5097348;28;20118;-65
2022/02/06 01:33:13;;;;;;;8.25;3.42;;;;;;;1.02;72.10;100086.97;5097261;28;20052;-65
2022/02/06 01:35:49;;;;;;;7.53;3.30;;;;;;;0.97;72.12;100080.88;5097268;28;20055;-65
2022/02/06 01:38:24;;;;;;;8.70;3.35;;;;;;;0.80;72.16;100055.81;5097136;28;20044;-65
2022/02/06 01:41:03;;;;;;;9.32;3.78;;;;;;;0.75;72.69;100060.66;5097111;28;20040;-65
2022/02/06 01:43:39;;;;;;;11.38;3.97;;;;;;;0.81;72.39;100065.94;5097115;28;20054;-65
2022/02/06 01:46:24;;;;;;;11.07;4.82;;;;;;;0.78;72.86;100060.78;5097066;28;20068;-65
2022/02/06 02:02:34;;;;;;;7.57;3.25;;;;;;;0.71;72.63;100051.25;5097344;28;20496;-65
2022/02/06 02:05:37;;;;;;;9.32;3.90;;;;;;;0.63;72.73;100052.56;5097002;28;20048;-64
2022/02/06 02:11:16;;;;;;;11.63;3.70;;;;;;;0.54;72.47;100040.47;5096332;28;20006;-64
2022/02/06 02:16:58;;;;;;;7.57;3.30;;;;;;;0.46;72.74;100030.88;5096255;28;20047;-64
2022/02/06 02:28:21;;;;;;;4.65;2.83;;;;;;;0.54;72.41;100004.47;5096245;28;20131;-65
2022/02/06 02:47:17;;;;;;;8.27;3.45;;;;;;;0.30;74.20;100008.41;5095920;28;20043;-64
2022/02/06 02:49:52;;;;;;;9.25;3.55;;;;;;;0.33;74.60;100008.53;5095531;28;20052;-64
2022/02/06 02:57:54;;;;;;;4.70;2.40;;;;;;;0.35;74.74;99994.41;5095687;28;20051;-65
2022/02/06 03:00:52;;;;;;;4.65;2.45;;;;;;;0.41;74.81;99998.03;5095469;28;20121;-65
2022/02/06 03:03:24;;;;;;;5.85;3.05;;;;;;;0.47;75.03;100007.50;5095907;28;20389;-64
2022/02/06 03:05:55;;;;;;;6.32;2.05;;;;;;;0.48;74.52;100001.69;5096252;28;20474;-65
2022/02/06 03:08:26;;;;;;;4.18;2.30;;;;;;;0.49;74.83;99995.88;5096022;28;20074;-64
2022/02/06 03:10:59;;;;;;;4.35;2.17;;;;;;;0.47;74.64;99998.31;5095648;28;20371;-64
2022/02/06 03:13:36;;;;;;;4.22;2.65;;;;;;;0.45;74.67;99994.03;5095657;28;20440;-64
2022/02/06 03:16:17;;;;;;;5.40;2.85;;;;;;;0.42;74.38;99998.91;5095291;28;20131;-64
2022/02/06 03:18:55;;;;;;;6.03;2.97;;;;;;;0.38;74.72;100002.06;5095285;28;20044;-64
2022/02/06 03:21:27;;;;;;;7.93;2.70;;;;;;;0.35;74.92;99987.75;5095138;28;20051;-65
2022/02/06 03:23:58;;;;;;;4.80;2.63;;;;;;;0.43;74.59;99995.63;5095239;28;20055;-65
2022/02/06 03:26:29;;;;;;;5.00;2.88;;;;;;;0.36;74.14;99998.66;5096034;28;20040;-64
2022/02/06 03:28:58;;;;;;;4.82;2.55;;;;;;;0.25;74.08;99998.16;5094332;28;20078;-64
2022/02/06 03:31:27;;;;;;;4.80;2.50;;;;;;;0.25;74.41;99997.28;5094927;28;20044;-64
2022/02/06 03:33:56;;;;;;;5.70;2.90;;;;;;;0.24;74.73;99993.91;5094993;28;20086;-65
2022/02/06 03:36:25;;;;;;;5.20;2.50;;;;;;;0.22;74.61;99992.13;5094871;28;20117;-64
2022/02/06 03:38:55;;;;;;;6.03;2.67;;;;;;;0.05;74.74;99990.53;5095422;28;20363;-64
2022/02/06 03:41:26;;;;;;;5.28;2.60;;;;;;;-0.04;74.94;99996.84;5094671;28;20044;-64
2022/02/06 03:44:02;;;;;;;3.90;2.20;;;;;;;-0.12;75.16;99989.75;5095086;28;20097;-64
2022/02/06 03:46:36;;;;;;;6.30;2.65;;;;;;;-0.09;75.35;99988.22;5094795;28;20044;-64
2022/02/06 03:49:11;;;;;;;6.70;2.92;;;;;;;0.02;75.39;99985.38;5094759;28;20134;-65
2022/02/06 03:51:40;;;;;;;3.97;2.28;;;;;;;0.07;75.08;99983.94;5094923;28;20105;-64
2022/02/06 03:54:11;;;;;;;6.60;2.88;;;;;;;0.12;75.00;99974.97;5094555;28;20126;-65
2022/02/06 03:56:41;;;;;;;8.13;2.45;;;;;;;0.12;74.92;99972.44;5094569;28;20078;-64
2022/02/06 03:59:11;;;;;;;5.80;2.35;;;;;;;0.10;75.15;99964.84;5094780;28;20397;-64
2022/02/06 04:01:41;;;;;;;4.90;2.63;;;;;;;0.09;74.81;99963.13;5094388;28;20478;-65
2022/02/06 04:04:10;;;;;;;3.57;2.27;;;;;;;0.10;74.81;99964.00;5094360;28;20047;-65
2022/02/06 04:06:40;;;;;;;5.70;2.60;;;;;;;0.05;74.93;99956.25;5094516;28;20573;-65
2022/02/06 04:09:15;;;;;;;3.42;1.90;;;;;;;-0.02;74.95;99955.13;5094326;28;20063;-65
2022/02/06 04:11:51;;;;;;;4.72;2.30;;;;;;;0.02;74.93;99951.13;5094565;28;20073;-65
2022/02/06 04:14:25;;;;;;;4.20;2.17;;;;;;;0.06;75.16;99949.59;5094211;28;20046;-65
2022/02/06 04:16:58;;;;;;;5.07;2.15;;;;;;;0.06;74.78;99952.09;5094176;28;20044;-65
2022/02/06 04:19:27;;;;;;;6.43;2.40;;;;;;;0.15;75.29;99948.34;5094782;28;20075;-65
2022/02/06 04:21:57;;;;;;;5.37;2.40;;;;;;;0.19;75.15;99945.19;5093975;28;20047;-65
2022/02/06 04:24:26;;;;;;;4.45;2.17;;;;;;;0.16;75.05;99942.53;5093047;28;20316;-65
2022/02/06 04:26:55;;;;;;;;;;;;;;;0.21;75.22;99938.59;5095302;28;20050;-65
2022/02/06 04:29:25;;;;;;;4.75;2.30;;;;;;;0.27;75.49;99943.00;5094216;28;19924;-65
2022/02/06 04:31:54;;;;;;;5.40;2.65;;;;;;;0.29;75.20;99946.47;5094315;28;20097;-65
2022/02/06 04:34:24;;;;;;;4.83;2.37;;;;;;;0.29;75.14;99946.47;5094189;28;20036;-65
2022/02/06 04:37:01;;;;;;;4.30;2.42;;;;;;;0.27;75.01;99940.50;5093957;28;20048;-65
2022/02/06 04:39:55;;;;;;;4.97;2.25;;;;;;;0.30;74.96;99940.63;5094114;28;20113;-65
2022/02/06 04:42:35;;;;;;;3.75;2.05;;;;;;;0.21;75.41;99931.06;5093887;28;20040;-65
2022/02/06 04:48:23;;;;;;;4.85;2.70;;;;;;;0.07;75.28;99926.22;5091851;28;20078;-65
2022/02/06 04:51:25;;;;;;;5.72;2.38;;;;;;;-0.02;75.17;99917.50;5093512;28;20056;-65
2022/02/06 05:15:30;;;;;;;4.85;2.45;;;;;;;0.34;75.76;99900.66;5093456;28;20055;-65
2022/02/06 05:28:52;;;;;;;6.47;2.85;;;;;;;0.38;75.28;99876.56;5093979;28;20044;-64
2022/02/06 05:31:33;;;;;;;6.40;2.80;;;;;;;0.38;75.56;99876.56;5093354;28;20044;-64
2022/02/06 05:34:04;;;;;;;6.53;2.60;;;;;;;0.35;75.46;99884.84;5093338;28;20101;-64
2022/02/06 05:36:33;;;;;;;6.45;2.65;;;;;;;0.33;75.48;99880.53;5093264;28;20052;-64
2022/02/06 05:39:02;;;;;;;7.35;2.70;;;;;;;0.34;75.44;99872.19;5093256;28;20043;-64
2022/02/06 05:41:31;;;;;;;6.90;2.90;;;;;;;0.32;75.05;99867.13;5093146;28;20036;-64
2022/02/06 05:44:02;;;;;;;7.25;2.65;;;;;;;0.26;74.92;99861.88;5093241;28;20498;-64
2022/02/06 05:46:31;;;;;;;6.35;2.70;;;;;;;0.18;75.05;99849.75;5093120;28;20044;-64
2022/02/06 05:49:00;;;;;;;7.15;3.08;;;;;;;0.28;75.35;99864.44;5092845;28;20044;-64
2022/02/06 05:51:31;;;;;;;5.65;2.92;;;;;;;0.31;75.00;99869.59;5093166;28;20047;-64
2022/02/06 05:54:00;;;;;;;6.38;3.03;;;;;;;0.30;75.20;99870.38;5096629;28;20052;-64
2022/02/06 05:56:29;;;;;;;7.73;3.07;;;;;;;0.39;74.77;99879.13;5097658;28;20055;-65
2022/02/06 05:58:59;;;;;;;9.40;3.40;;;;;;;0.45;75.31;99873.53;5095859;28;20146;-66
2022/02/06 06:01:28;;;;;;;;;;;;;;;0.52;75.60;99868.84;5097073;28;20070;-65
2022/02/06 06:03:57;;;;;;;5.05;2.72;;;;;;;0.54;75.19;99868.88;5096984;28;19924;-65
2022/02/06 06:06:26;;;;;;;5.35;2.80;;;;;;;0.59;74.83;99862.41;5096675;28;20082;-65
2022/02/06 06:08:57;;;;;;;4.83;3.00;;;;;;;0.63;75.09;99855.06;5095698;28;20040;-65
2022/02/06 06:11:26;;;;;;;7.35;2.80;;;;;;;0.62;74.55;99860.03;5097193;28;20036;-65
2022/02/06 06:13:54;;;;;;;5.28;2.72;;;;;;;0.61;75.01;99856.66;5096502;28;20044;-65
2022/02/06 06:16:23;;;;;;;4.13;2.25;;;;;;;0.62;75.29;99852.50;5096428;28;20033;-65
2022/02/06 06:18:52;;;;;;;6.37;2.53;;;;;;;0.65;74.85;99852.59;5096426;28;20086;-65
2022/02/06 06:21:24;;;;;;;5.03;2.72;;;;;;;0.64;74.88;99850.91;5096630;28;20126;-65
2022/02/06 06:23:55;;;;;;;10.50;3.00;;;;;;;0.66;74.81;99859.34;5096365;28;20538;-65
2022/02/06 06:26:27;;;;;;;5.82;2.75;;;;;;;0.63;74.95;99855.06;5096296;28;20052;-65
2022/02/06 06:28:56;;;;;;;5.00;2.58;;;;;;;0.66;75.33;99859.34;5096438;28;20059;-65
2022/02/06 06:31:26;;;;;;;7.03;3.33;;;;;;;0.72;75.60;99864.59;5096528;28;20039;-65
2022/02/06 06:33:55;;;;;;;6.00;2.80;;;;;;;0.76;75.15;99851.41;5095157;28;20130;-65
2022/02/06 06:36:24;;;;;;;8.03;3.70;;;;;;;0.78;75.01;99849.81;5096093;28;20048;-64
2022/02/06 06:38:54;;;;;;;5.43;2.92;;;;;;;0.79;75.07;99836.47;5094589;28;20277;-65
2022/02/06 06:41:44;;;;;;;5.07;2.53;;;;;;;0.82;75.22;99841.59;5095864;28;20085;-65
2022/02/06 06:44:13;;;;;;;6.40;2.78;;;;;;;0.85;75.37;99841.72;5096169;28;20052;-66
2022/02/06 06:46:42;;;;;;;4.55;2.55;;;;;;;0.93;74.98;99835.34;5095969;28;20051;-65
2022/02/06 06:49:11;;;;;;;6.07;2.70;;;;;;;1.02;74.83;99835.72;5095903;28;20436;-65
2022/02/06 06:51:40;;;;;;;7.10;2.50;;;;;;;1.05;75.22;99828.31;5095838;28;20040;-64
2022/02/06 06:54:14;;;;;;;5.70;2.40;;;;;;;1.08;75.00;99830.91;5095941;28;20376;-64
2022/02/06 06:56:53;;;;;;;5.90;2.60;;;;;;;1.11;74.99;99832.69;5096265;28;20139;-65
2022/02/06 06:59:32;;;;;;;8.18;2.95;;;;;;;1.15;74.89;99830.34;5096081;28;20113;-65
2022/02/06 07:02:17;;;;;;;7.40;3.47;;;;;;;1.21;75.14;99827.22;5094907;28;20040;-65
2022/02/06 07:04:48;;;;;;;9.00;3.65;;;;;;;1.25;75.06;99827.41;5095537;28;20219;-65
2022/02/06 07:07:17;;;;;;;6.80;2.97;;;;;;;1.30;74.71;99830.94;5095782;28;20063;-65
2022/02/06 07:09:46;;;;;;;6.20;3.00;;;;;;;1.40;74.65;99833.78;5095450;28;20051;-65
2022/02/06 07:12:17;;;;;;;6.00;2.90;;;;;;;1.50;74.82;99835.88;5095628;28;20095;-64
2022/02/06 07:14:47;;;;;;;5.65;3.13;;;;;;;1.62;74.65;99836.31;5095840;28;20781;-65
2022/02/06 07:17:17;;;;;;;5.55;2.85;;;;;;;1.76;74.70;99827.63;5095467;28;20036;-64
2022/02/06 07:19:46;;;;;;;;;;;;;;;1.89;74.56;99834.81;5096004;28;20550;-64
2022/02/06 07:22:17;;;;;;;4.70;2.40;;;;;;;2.01;74.67;99822.69;5094956;28;19920;-65
2022/02/06 07:24:48;;;;;;;5.90;2.75;;;;;;;2.06;74.38;99821.19;5095070;28;20067;-64
2022/02/06 07:27:22;;;;;;;6.07;2.88;;;;;;;2.05;74.22;99821.97;5095104;28;20113;-64
2022/02/06 07:29:53;;;;;;;6.05;3.60;;;;;;;2.08;73.53;99824.59;5095049;28;20090;-64
2022/02/06 07:32:22;;;;;;;8.02;3.75;;;;;;;2.16;73.54;99823.19;5094949;28;20090;-64
2022/02/06 07:34:52;;;;;;;6.32;3.55;;;;;;;2.21;73.51;99821.69;5095163;28;20055;-64
2022/02/06 07:37:21;;;;;;;7.28;3.55;;;;;;;2.17;73.09;99834.97;5095135;28;20501;-64
2022/02/06 07:39:50;;;;;;;6.53;2.90;;;;;;;2.20;73.41;99844.31;5095219;28;20062;-64
2022/02/06 07:42:25;;;;;;;8.50;4.07;;;;;;;2.20;73.65;99830.06;5097196;28;20439;-64
2022/02/06 07:45:00;;;;;;;8.00;3.92;;;;;;;2.23;72.72;99831.81;5094637;28;20044;-64
2022/02/06 07:47:30;;;;;;;7.90;3.53;;;;;;;2.23;73.38;99825.09;5094941;28;20040;-64
2022/02/06 07:50:03;;;;;;;24.50;8.23;;;;;;;2.26;72.93;99825.22;5094566;28;20129;-64
2022/02/06 07:52:31;;;;;;;38.03;13.73;;;;;;;2.26;73.39;99830.25;5094942;28;20044;-64
2022/02/06 07:55:00;;;;;;;25.17;9.23;;;;;;;2.33;73.26;99827.13;5093301;28;20048;-64
2022/02/06 07:57:31;;;;;;;8.20;4.22;;;;;;;2.43;73.38;99824.13;5094536;28;20048;-64
2022/02/06 08:00:00;;;;;;;10.73;4.82;;;;;;;2.52;72.36;99823.59;5094780;28;20122;-64
2022/02/06 08:02:38;;;;;;;6.43;3.30;;;;;;;2.63;72.19;99818.09;5094361;28;20127;-64
2022/02/06 08:05:09;;;;;;;8.10;3.47;;;;;;;2.72;72.60;99802.41;5094259;28;20303;-64
2022/02/06 08:07:38;;;;;;;6.20;3.25;;;;;;;2.76;72.29;99803.38;5094334;28;20062;-64
2022/02/06 08:10:08;;;;;;;7.13;3.78;;;;;;;2.81;72.19;99794.31;5094744;28;20039;-64
2022/02/06 08:12:50;;;;;;;7.07;3.08;;;;;;;2.87;72.03;99805.44;5094842;28;20044;-64
2022/02/06 08:15:19;;;;;;;6.10;2.85;;;;;;;2.95;71.72;99804.00;5092620;28;20075;-64
2022/02/06 08:17:48;;;;;;;5.70;2.70;;;;;;;3.08;71.03;99801.06;5094183;28;20044;-64
2022/02/06 08:20:19;;;;;;;8.75;3.28;;;;;;;3.11;71.16;99792.72;5094075;28;20043;-64
2022/02/06 08:22:48;;;;;;;7.72;3.22;;;;;;;3.13;70.83;99801.19;5092863;28;20040;-64
2022/02/06 08:25:17;;;;;;;12.87;3.53;;;;;;;3.09;70.88;99799.41;5093977;28;20043;-64
2022/02/06 08:27:48;;;;;;;7.67;3.50;;;;;;;3.04;70.56;99814.38;5093950;28;20043;-64
2022/02/06 08:30:18;;;;;;;6.22;2.90;;;;;;;3.03;70.93;99814.31;5094157;28;20132;-64
2022/02/06 08:32:47;;;;;;;7.07;3.30;;;;;;;2.98;70.64;99795.66;5093953;28;20058;-64
2022/02/06 08:35:16;;;;;;;6.40;3.80;;;;;;;3.01;69.97;99801.69;5093927;28;20071;-64
2022/02/06 08:37:45;;;;;;;6.68;3.40;;;;;;;3.00;70.92;99796.59;5093831;28;20040;-64
2022/02/06 08:40:16;;;;;;;6.65;3.60;;;;;;;3.01;70.62;99795.78;5094166;28;20072;-64
2022/02/06 08:42:48;;;;;;;8.15;4.25;;;;;;;2.99;70.47;99784.78;5093934;28;20127;-63
2022/02/06 08:45:20;;;;;;;7.95;3.90;;;;;;;2.99;69.90;99783.13;5093836;28;20044;-64
2022/02/06 08:47:50;;;;;;;8.63;4.22;;;;;;;3.06;70.30;99789.22;5094006;28;20118;-64
2022/02/06 08:50:19;;;;;;;10.25;3.78;;;;;;;3.08;70.50;99783.41;5093784;28;20078;-64
2022/02/06 08:52:48;;;;;;;9.68;4.28;;;;;;;3.11;69.66;99775.09;5093668;28;20093;-64
2022/02/06 08:55:19;;;;;;;8.27;4.13;;;;;;;3.21;69.78;99782.97;5093679;28;20036;-64
2022/02/06 08:57:51;;;;;;;5.82;3.22;;;;;;;3.25;69.76;99771.31;5093834;28;20086;-64
2022/02/06 09:00:22;;;;;;;9.27;4.30;;;;;;;3.34;69.85;99771.56;5093930;28;20080;-64
2022/02/06 09:02:53;;;;;;;7.30;3.28;;;;;;;3.48;69.66;99770.28;5092769;28;20120;-64
2022/02/06 09:05:24;;;;;;;11.43;3.75;;;;;;;3.57;68.80;99769.72;5093440;28;20101;-64
2022/02/06 09:07:53;;;;;;;7.13;3.67;;;;;;;3.72;69.22;99770.16;5093559;28;20048;-64
2022/02/06 09:10:22;;;;;;;6.93;3.40;;;;;;;3.80;68.78;99759.44;5093526;28;20040;-64
2022/02/06 09:12:54;;;;;;;6.82;3.45;;;;;;;3.84;68.29;99771.31;5093812;28;20082;-64
2022/02/06 09:15:24;;;;;;;7.47;3.17;;;;;;;3.91;68.64;99760.56;5093734;28;20456;-64
2022/02/06 09:17:53;;;;;;;6.28;3.30;;;;;;;4.07;67.85;99755.16;5093589;28;20405;-64
2022/02/06 09:20:22;;;;;;;7.50;3.53;;;;;;;4.18;67.93;99762.13;5093605;28;20076;-64
2022/02/06 09:22:52;;;;;;;7.53;3.28;;;;;;;4.27;67.35;99749.75;5091349;28;20129;-64
2022/02/06 09:25:21;;;;;;;6.95;3.47;;;;;;;4.27;67.39;99749.75;5093221;28;20074;-64
2022/02/06 09:27:52;;;;;;;6.40;3.30;;;;;;;4.36;67.12;99752.50;5097086;28;20040;-64
2022/02/06 09:30:25;;;;;;;5.25;3.20;;;;;;;4.40;67.38;99736.59;5094128;28;20413;-65
2022/02/06 09:35:23;;;;;;;7.20;3.70;;;;;;;4.54;66.47;99737.75;5096316;28;20117;-64
2022/02/06 09:37:56;;;;;;;10.13;4.10;;;;;;;4.69;66.32;99735.63;5100066;28;20036;-63
2022/02/06 09:40:31;;;;;;;9.60;4.57;;;;;;;4.92;66.21;99726.03;5117453;28;20079;-63
2022/02/06 09:43:02;;;;;;;10.88;4.57;;;;;;;5.10;65.67;99719.69;5115986;28;20071;-64
2022/02/06 09:45:33;;;;;;;9.90;4.18;;;;;;;5.31;65.62;99717.63;5102481;28;20046;-64
2022/02/06 09:48:02;;;;;;;6.60;3.20;;;;;;;5.30;65.67;99707.47;5096684;28;20431;-63
2022/02/06 09:50:30;;;;;;;7.28;3.72;;;;;;;5.31;64.99;99699.91;5102585;28;20519;-64
2022/02/06 09:53:00;;;;;;;8.80;3.58;;;;;;;5.38;65.08;99699.19;5111770;28;20509;-64
2022/02/06 09:55:29;;;;;;;6.73;3.53;;;;;;;5.38;65.28;99690.75;5117560;28;20040;-64
2022/02/06 09:58:14;;;;;;;8.30;3.70;;;;;;;5.33;64.96;99692.34;5117055;28;20040;-64
2022/02/06 10:00:45;;;;;;;7.30;3.40;;;;;;;5.33;65.16;99694.88;5117178;28;20052;-64
2022/02/06 10:03:15;;;;;;;6.10;2.92;;;;;;;5.43;65.21;99692.56;5117030;28;20043;-64
2022/02/06 10:05:45;;;;;;;5.78;3.00;;;;;;;5.44;64.73;99678.22;5117168;28;20094;-64
2022/02/06 10:08:27;;;;;;;9.50;3.55;;;;;;;5.40;64.81;99677.31;5116106;28;20079;-64
2022/02/06 10:11:03;;;;;;;6.95;3.30;;;;;;;5.40;64.71;99664.66;5117315;28;20477;-64
2022/02/06 10:13:36;;;;;;;8.00;3.10;;;;;;;5.29;64.93;99676.25;5117234;28;20396;-64
2022/02/06 10:16:08;;;;;;;6.80;3.63;;;;;;;5.23;64.87;99655.88;5114398;28;20047;-65
2022/02/06 10:18:37;;;;;;;8.57;3.50;;;;;;;5.19;65.33;99651.59;5113979;28;20164;-64
2022/02/06 10:21:08;;;;;;;6.88;3.30;;;;;;;5.16;65.27;99640.56;5116700;28;20047;-64
2022/02/06 10:23:42;;;;;;;6.18;3.30;;;;;;;5.21;65.68;99649.06;4599520;22;20053;-63
2022/02/06 10:26:23;;;;;;;6.38;3.17;;;;;;;5.15;65.90;99639.72;5076017;28;20042;-63
2022/02/06 10:29:10;;;;;;;5.53;3.30;;;;;;;5.15;65.61;99638.84;5075161;28;20052;-64
2022/02/06 10:31:43;;;;;;;6.85;2.97;;;;;;;5.06;65.94;99629.38;5076063;28;20049;-63
2022/02/06 10:34:21;;;;;;;8.95;3.63;;;;;;;5.06;66.01;99614.22;5075929;28;20045;-63
2022/02/06 10:36:51;;;;;;;10.02;3.80;;;;;;;5.11;66.06;99607.56;5075915;28;20042;-63
2022/02/06 10:39:24;;;;;;;6.38;3.00;;;;;;;5.12;65.93;99603.38;5075270;28;20041;-63
2022/02/06 10:41:54;;;;;;;6.00;3.35;;;;;;;5.19;66.26;99593.41;5074528;28;20094;-63
2022/02/06 10:44:29;;;;;;;6.75;3.25;;;;;;;5.30;65.84;99570.84;5075765;28;20036;-63
2022/02/06 10:47:01;;;;;;;7.88;3.38;;;;;;;5.77;65.70;99589.38;5075995;28;20044;-63
2022/02/06 10:49:30;;;;;;;7.55;3.47;;;;;;;5.93;64.96;99576.16;5075722;28;20047;-63
2022/02/06 10:52:01;;;;;;;6.53;3.13;;;;;;;5.96;65.12;99582.16;5075613;28;20048;-63
2022/02/06 10:54:35;;;;;;;6.35;3.08;;;;;;;5.86;64.60;99577.75;5075636;28;20052;-64
2022/02/06 10:57:07;;;;;;;7.20;3.13;;;;;;;5.76;64.48;99569.97;5075890;28;20074;-63
2022/02/06 11:00:13;;;;;;;6.00;3.28;;;;;;;5.61;64.46;99549.47;5250524;22;20122;-70
2022/02/06 11:02:59;;;;;;;6.07;3.15;;;;;;;5.60;64.86;99558.72;5034928;28;20049;-67
2022/02/06 11:05:35;;;;;;;7.25;3.20;;;;;;;5.52;64.67;99569.56;5035076;28;20053;-67
2022/02/06 11:08:05;;;;;;;6.72;3.38;;;;;;;5.40;64.98;99570.16;5035466;28;20076;-67
2022/02/06 11:10:35;;;;;;;9.98;3.30;;;;;;;5.42;65.16;99574.44;5035340;28;20061;-67
2022/02/06 11:13:06;;;;;;;6.90;3.25;;;;;;;5.37;65.38;99565.91;5034940;28;20045;-67
2022/02/06 11:15:39;;;;;;;5.85;3.05;;;;;;;5.32;65.49;99554.88;5035251;28;20494;-67
2022/02/06 11:18:15;;;;;;;6.03;3.00;;;;;;;5.31;65.37;99550.63;5035129;28;20112;-68
2022/02/06 11:20:55;;;;;;;7.75;3.17;;;;;;;5.20;65.45;99536.94;5035060;28;20069;-67
2022/02/06 11:23:24;;;;;;;6.50;3.20;;;;;;;5.20;65.61;99547.06;5035368;28;20049;-67
2022/02/06 11:25:53;;;;;;;6.07;3.17;;;;;;;5.07;65.41;99519.81;5034954;28;20045;-67
2022/02/06 11:28:22;;;;;;;5.68;2.80;;;;;;;5.14;65.74;99531.75;5034904;28;20041;-68
2022/02/06 11:30:52;;;;;;;5.67;3.27;;;;;;;5.12;66.15;99527.50;5035070;28;20068;-68
2022/02/06 11:33:24;;;;;;;6.25;3.22;;;;;;;5.12;66.73;99528.34;5034564;28;20045;-68
2022/02/06 11:35:57;;;;;;;9.40;4.53;;;;;;;5.21;66.90;99522.59;5035207;28;20046;-67
2022/02/06 11:44:44;;;;;;;9.35;3.97;;;;;;;5.39;66.72;99526.31;5012135;28;20037;-67
2022/02/06 11:47:20;;;;;;;6.88;3.65;;;;;;;5.30;66.36;99516.00;5034639;28;20049;-67
2022/02/06 11:49:53;;;;;;;8.23;4.40;;;;;;;5.23;66.66;99506.63;5033628;28;20052;-67
2022/02/06 11:52:23;;;;;;;6.25;3.60;;;;;;;5.13;67.14;99492.13;5034797;28;20470;-67
2022/02/06 11:54:53;;;;;;;8.52;3.97;;;;;;;5.02;67.53;99480.09;5034230;28;20610;-68
2022/02/06 11:57:27;;;;;;;7.45;3.45;;;;;;;4.90;67.52;99470.63;5034750;28;20413;-67
2022/02/06 12:00:18;;;;;;;8.00;4.50;;;;;;;4.90;68.21;99460.50;5033378;28;20099;-67
2022/02/06 12:02:49;;;;;;;7.80;4.20;;;;;;;4.81;68.25;99455.28;5034551;28;20041;-67
2022/02/06 12:05:26;;;;;;;9.27;4.25;;;;;;;4.78;69.01;99459.41;5034169;28;20107;-67
2022/02/06 12:08:09;;;;;;;11.02;4.93;;;;;;;4.78;69.23;99464.47;5033870;28;20044;-67
2022/02/06 12:10:59;;;;;;;10.38;4.95;;;;;;;4.79;69.30;99454.41;5034224;28;20076;-66
2022/02/06 12:13:30;;;;;;;8.82;4.60;;;;;;;4.80;69.22;99447.69;5033890;28;20048;-67
2022/02/06 12:16:03;;;;;;;9.10;5.03;;;;;;;4.80;69.57;99443.44;5034107;28;20049;-67
2022/02/06 12:18:34;;;;;;;10.30;5.28;;;;;;;4.73;69.62;99406.25;5033686;28;20525;-67
2022/02/06 12:21:12;;;;;;;12.05;5.05;;;;;;;4.88;69.85;99406.53;5033760;28;20049;-67
2022/02/06 12:23:44;;;;;;;8.88;5.05;;;;;;;4.96;69.20;99397.41;5034011;28;20549;-67
2022/02/06 12:26:41;;;;;;;8.18;4.50;;;;;;;4.96;69.17;99387.31;5033919;28;20442;-68
2022/02/06 12:29:14;;;;;;;8.85;5.07;;;;;;;4.99;68.98;99364.56;5030634;28;20084;-67
2022/02/06 12:31:57;;;;;;;9.45;4.63;;;;;;;5.03;68.90;99353.69;5020118;28;20046;-67
2022/02/06 12:37:27;;;;;;;9.57;4.97;;;;;;;5.21;68.37;99338.78;5014060;28;20140;-67
2022/02/06 12:39:59;;;;;;;9.52;4.88;;;;;;;5.32;67.80;99337.28;5014058;28;20053;-67
2022/02/06 12:42:30;;;;;;;8.45;4.55;;;;;;;5.52;67.69;99327.41;5014030;28;20492;-67
2022/02/06 12:45:00;;;;;;;9.68;4.18;;;;;;;5.75;67.27;99321.00;5012894;28;20057;-67
2022/02/06 12:47:31;;;;;;;9.63;4.47;;;;;;;5.92;66.25;99318.69;5014011;28;20108;-67
2022/02/06 12:50:00;;;;;;;8.07;3.85;;;;;;;6.00;66.53;99302.75;5014613;28;20395;-67
2022/02/06 12:52:37;;;;;;;9.38;4.30;;;;;;;6.02;65.68;99302.78;5013902;28;20050;-67
2022/02/06 12:55:06;;;;;;;7.50;3.40;;;;;;;6.05;65.74;99305.31;5013838;28;20042;-67
2022/02/06 12:57:43;;;;;;;8.60;3.55;;;;;;;6.08;64.70;99302.84;5014219;28;20123;-67
2022/02/06 13:00:29;;;;;;;6.07;3.30;;;;;;;6.09;64.34;99291.88;5017163;28;20046;-67
2022/02/06 13:03:21;;;;;;;6.75;3.63;;;;;;;6.05;63.79;99290.13;5053551;28;20041;-68
2022/02/06 13:05:52;;;;;;;7.47;3.33;;;;;;;6.06;63.62;99296.91;5053614;28;20067;-68
2022/02/06 13:08:23;;;;;;;8.00;3.13;;;;;;;5.93;63.21;99275.66;5053371;28;20052;-68
2022/02/06 13:10:54;;;;;;;6.85;3.50;;;;;;;5.99;63.07;99277.41;5053347;28;20053;-68
2022/02/06 13:13:30;;;;;;;8.13;3.40;;;;;;;6.01;63.24;99278.28;5053336;28;20582;-68
2022/02/06 13:19:19;;;;;;;;;;;;;;;5.96;63.28;99284.97;5051760;28;20552;-68
2022/02/06 13:22:12;;;;;;;7.35;3.58;;;;;;;5.84;63.89;99284.78;5053475;28;19943;-68
2022/02/06 13:24:59;;;;;;;10.90;4.60;;;;;;;5.81;64.53;99287.28;5053489;28;20053;-68
2022/02/06 13:27:50;;;;;;;8.27;4.38;;;;;;;5.83;64.99;99273.00;5052255;28;20442;-68
2022/02/06 13:30:33;;;;;;;8.55;4.40;;;;;;;5.84;65.11;99284.78;5053082;28;20052;-68
2022/02/06 13:33:05;;;;;;;7.97;4.43;;;;;;;5.78;65.36;99280.50;5053064;28;20056;-68
2022/02/06 13:35:40;;;;;;;9.05;5.00;;;;;;;5.71;65.00;99272.84;5052336;28;20364;-67
2022/02/06 13:38:16;;;;;;;11.75;4.80;;;;;;;5.63;65.17;99279.47;5052928;28;20095;-68
2022/02/06 13:40:49;;;;;;;9.98;5.72;;;;;;;5.49;65.24;99266.66;5053383;28;20053;-68
2022/02/06 13:43:21;;;;;;;9.18;4.50;;;;;;;5.47;65.50;99264.94;5053439;28;20048;-68
2022/02/06 13:45:55;;;;;;;11.20;4.38;;;;;;;5.47;65.52;99267.47;5052977;28;20445;-68
2022/02/06 13:48:26;;;;;;;10.20;4.93;;;;;;;5.42;65.48;99265.72;5053023;28;20163;-67
2022/02/06 13:50:58;;;;;;;8.70;4.50;;;;;;;5.33;65.76;99268.13;5052946;28;20059;-68
2022/02/06 13:53:30;;;;;;;11.20;4.68;;;;;;;5.29;66.08;99268.94;5052970;28;20136;-68